sensor_id;sensor_type;location;lat;lon;timestamp;P1;durP1;ratioP1;P2;durP2;ratioP2
17727;SDS011;8984;49.268;12.302;2022-10-30T00:02:04;10.17;;;5.37;;
17727;SDS011;8984;49.268;12.302;2022-10-30T00:04:31;15.17;;;5.87;;
17727;SDS011;8984;49.268;12.302;2022-10-30T00:06:58;7.60;;;5.57;;
17727;SDS011;8984;49.268;12.302;2022-10-30T00:09:26;14.13;;;5.60;;
17727;SDS011;8984;49.268;12.302;2022-10-30T00:11:53;12.27;;;5.20;;
17727;SDS011;8984;49.268;12.302;2022-10-30T00:14:20;11.57;;;5.43;;
17727;SDS011;8984;49.268;12.302;2022-10-30T00:16:47;9.97;;;6.10;;
17727;SDS011;8984;49.268;12.302;2022-10-30T00:19:14;14.53;;;5.70;;
17727;SDS011;8984;49.268;12.302;2022-10-30T00:21:41;15.83;;;6.00;;
17727;SDS011;8984;49.268;12.302;2022-10-30T00:24:07;13.93;;;5.33;;
17727;SDS011;8984;49.268;12.302;2022-10-30T00:26:36;11.77;;;5.10;;
17727;SDS011;8984;49.268;12.302;2022-10-30T00:29:03;10.47;;;5.57;;
17727;SDS011;8984;49.268;12.302;2022-10-30T00:31:30;13.23;;;5.67;;
17727;SDS011;8984;49.268;12.302;2022-10-30T00:33:57;10.07;;;5.40;;
17727;SDS011;8984;49.268;12.302;2022-10-30T00:36:27;12.03;;;5.10;;
17727;SDS011;8984;49.268;12.302;2022-10-30T00:38:54;13.27;;;5.27;;
17727;SDS011;8984;49.268;12.302;2022-10-30T00:41:21;11.10;;;5.00;;
17727;SDS011;8984;49.268;12.302;2022-10-30T00:43:51;12.47;;;4.87;;
17727;SDS011;8984;49.268;12.302;2022-10-30T00:46:19;9.97;;;4.90;;
17727;SDS011;8984;49.268;12.302;2022-10-30T00:48:51;8.03;;;4.90;;
17727;SDS011;8984;49.268;12.302;2022-10-30T00:51:20;13.73;;;4.70;;
17727;SDS011;8984;49.268;12.302;2022-10-30T00:53:48;10.17;;;5.20;;
17727;SDS011;8984;49.268;12.302;2022-10-30T00:56:16;10.17;;;4.70;;
17727;SDS011;8984;49.268;12.302;2022-10-30T00:58:47;12.37;;;4.87;;
17727;SDS011;8984;49.268;12.302;2022-10-30T01:01:21;8.50;;;4.57;;
17727;SDS011;8984;49.268;12.302;2022-10-30T01:03:51;10.93;;;4.93;;
17727;SDS011;8984;49.268;12.302;2022-10-30T01:06:23;15.57;;;4.93;;
17727;SDS011;8984;49.268;12.302;2022-10-30T01:08:51;13.27;;;5.07;;
17727;SDS011;8984;49.268;12.302;2022-10-30T01:11:20;9.97;;;5.27;;
17727;SDS011;8984;49.268;12.302;2022-10-30T01:13:47;11.80;;;4.93;;
17727;SDS011;8984;49.268;12.302;2022-10-30T01:16:34;12.47;;;5.17;;
17727;SDS011;8984;49.268;12.302;2022-10-30T01:19:23;10.50;;;5.00;;
17727;SDS011;8984;49.268;12.302;2022-10-30T01:21:59;12.47;;;4.80;;
17727;SDS011;8984;49.268;12.302;2022-10-30T01:24:41;19.57;;;5.23;;
17727;SDS011;8984;49.268;12.302;2022-10-30T01:27:17;12.40;;;5.20;;
17727;SDS011;8984;49.268;12.302;2022-10-30T01:30:02;10.63;;;4.83;;
17727;SDS011;8984;49.268;12.302;2022-10-30T01:32:44;10.83;;;5.17;;
17727;SDS011;8984;49.268;12.302;2022-10-30T01:35:19;8.03;;;5.27;;
17727;SDS011;8984;49.268;12.302;2022-10-30T01:37:53;14.63;;;4.90;;
17727;SDS011;8984;49.268;12.302;2022-10-30T01:40:23;15.97;;;5.70;;
17727;SDS011;8984;49.268;12.302;2022-10-30T01:42:51;10.33;;;5.27;;
17727;SDS011;8984;49.268;12.302;2022-10-30T01:45:21;13.63;;;6.17;;
17727;SDS011;8984;49.268;12.302;2022-10-30T01:47:59;39.43;;;18.63;;
17727;SDS011;8984;49.268;12.302;2022-10-30T01:50:44;35.23;;;17.70;;
17727;SDS011;8984;49.268;12.302;2022-10-30T01:53:16;29.27;;;11.17;;
17727;SDS011;8984;49.268;12.302;2022-10-30T01:55:55;17.93;;;7.87;;
17727;SDS011;8984;49.268;12.302;2022-10-30T01:58:33;16.77;;;6.77;;
17727;SDS011;8984;49.268;12.302;2022-10-30T02:01:07;12.83;;;6.37;;
17727;SDS011;8984;49.268;12.302;2022-10-30T02:03:35;10.90;;;5.70;;
17727;SDS011;8984;49.268;12.302;2022-10-30T02:06:02;12.93;;;5.23;;
17727;SDS011;8984;49.268;12.302;2022-10-30T02:08:30;10.13;;;5.23;;
17727;SDS011;8984;49.268;12.302;2022-10-30T02:10:57;13.93;;;5.53;;
17727;SDS011;8984;49.268;12.302;2022-10-30T02:13:24;11.93;;;5.33;;
17727;SDS011;8984;49.268;12.302;2022-10-30T02:15:51;9.90;;;4.90;;
17727;SDS011;8984;49.268;12.302;2022-10-30T02:18:18;8.87;;;5.27;;
17727;SDS011;8984;49.268;12.302;2022-10-30T02:20:47;9.97;;;5.00;;
17727;SDS011;8984;49.268;12.302;2022-10-30T02:23:13;7.17;;;4.27;;
17727;SDS011;8984;49.268;12.302;2022-10-30T02:25:43;11.77;;;4.97;;
17727;SDS011;8984;49.268;12.302;2022-10-30T02:28:10;12.63;;;4.50;;
17727;SDS011;8984;49.268;12.302;2022-10-30T02:30:37;11.53;;;4.50;;
17727;SDS011;8984;49.268;12.302;2022-10-30T02:33:08;13.23;;;4.63;;
17727;SDS011;8984;49.268;12.302;2022-10-30T02:35:35;11.87;;;4.43;;
17727;SDS011;8984;49.268;12.302;2022-10-30T02:38:03;8.13;;;4.97;;
17727;SDS011;8984;49.268;12.302;2022-10-30T02:40:30;12.60;;;4.30;;
17727;SDS011;8984;49.268;12.302;2022-10-30T02:42:57;13.00;;;4.97;;
17727;SDS011;8984;49.268;12.302;2022-10-30T02:45:23;9.07;;;5.00;;
17727;SDS011;8984;49.268;12.302;2022-10-30T02:47:50;12.90;;;5.00;;
17727;SDS011;8984;49.268;12.302;2022-10-30T02:50:17;11.17;;;5.17;;
17727;SDS011;8984;49.268;12.302;2022-10-30T02:52:44;9.57;;;5.20;;
17727;SDS011;8984;49.268;12.302;2022-10-30T02:55:12;8.50;;;4.97;;
17727;SDS011;8984;49.268;12.302;2022-10-30T02:57:39;11.47;;;4.80;;
17727;SDS011;8984;49.268;12.302;2022-10-30T03:00:06;12.73;;;5.13;;
17727;SDS011;8984;49.268;12.302;2022-10-30T03:02:34;18.07;;;5.17;;
17727;SDS011;8984;49.268;12.302;2022-10-30T03:05:01;9.80;;;4.57;;
17727;SDS011;8984;49.268;12.302;2022-10-30T03:07:27;10.27;;;4.20;;
17727;SDS011;8984;49.268;12.302;2022-10-30T03:09:54;8.77;;;5.17;;
17727;SDS011;8984;49.268;12.302;2022-10-30T03:12:23;10.00;;;4.50;;
17727;SDS011;8984;49.268;12.302;2022-10-30T03:14:49;12.07;;;4.60;;
17727;SDS011;8984;49.268;12.302;2022-10-30T03:17:16;10.77;;;4.70;;
17727;SDS011;8984;49.268;12.302;2022-10-30T03:19:43;12.03;;;4.70;;
17727;SDS011;8984;49.268;12.302;2022-10-30T03:22:10;10.83;;;4.20;;
17727;SDS011;8984;49.268;12.302;2022-10-30T03:24:37;8.60;;;4.73;;
17727;SDS011;8984;49.268;12.302;2022-10-30T03:27:04;10.90;;;4.53;;
17727;SDS011;8984;49.268;12.302;2022-10-30T03:29:32;10.20;;;4.53;;
17727;SDS011;8984;49.268;12.302;2022-10-30T03:31:59;11.17;;;4.53;;
17727;SDS011;8984;49.268;12.302;2022-10-30T03:34:26;7.70;;;5.00;;
17727;SDS011;8984;49.268;12.302;2022-10-30T03:36:53;11.13;;;4.40;;
17727;SDS011;8984;49.268;12.302;2022-10-30T03:39:20;8.87;;;4.93;;
17727;SDS011;8984;49.268;12.302;2022-10-30T03:41:47;14.80;;;4.87;;
17727;SDS011;8984;49.268;12.302;2022-10-30T03:44:13;10.97;;;4.37;;
17727;SDS011;8984;49.268;12.302;2022-10-30T03:46:42;9.47;;;4.43;;
17727;SDS011;8984;49.268;12.302;2022-10-30T03:49:08;11.63;;;4.23;;
17727;SDS011;8984;49.268;12.302;2022-10-30T03:51:35;8.43;;;4.77;;
17727;SDS011;8984;49.268;12.302;2022-10-30T03:54:02;12.33;;;5.30;;
17727;SDS011;8984;49.268;12.302;2022-10-30T03:56:29;8.67;;;4.33;;
17727;SDS011;8984;49.268;12.302;2022-10-30T03:58:56;10.03;;;4.73;;
17727;SDS011;8984;49.268;12.302;2022-10-30T04:01:23;11.13;;;4.83;;
17727;SDS011;8984;49.268;12.302;2022-10-30T04:03:51;10.07;;;4.90;;
17727;SDS011;8984;49.268;12.302;2022-10-30T04:06:18;10.63;;;4.60;;
17727;SDS011;8984;49.268;12.302;2022-10-30T04:08:44;13.23;;;4.83;;
17727;SDS011;8984;49.268;12.302;2022-10-30T04:11:11;10.87;;;4.40;;
17727;SDS011;8984;49.268;12.302;2022-10-30T04:13:38;10.73;;;4.33;;
17727;SDS011;8984;49.268;12.302;2022-10-30T04:16:05;12.80;;;4.53;;
17727;SDS011;8984;49.268;12.302;2022-10-30T04:18:32;8.47;;;4.27;;
17727;SDS011;8984;49.268;12.302;2022-10-30T04:21:00;14.43;;;5.20;;
17727;SDS011;8984;49.268;12.302;2022-10-30T04:23:27;11.90;;;5.00;;
17727;SDS011;8984;49.268;12.302;2022-10-30T04:25:54;11.63;;;4.63;;
17727;SDS011;8984;49.268;12.302;2022-10-30T04:28:21;8.63;;;5.10;;
17727;SDS011;8984;49.268;12.302;2022-10-30T04:30:48;10.73;;;4.33;;
17727;SDS011;8984;49.268;12.302;2022-10-30T04:33:15;10.30;;;4.90;;
17727;SDS011;8984;49.268;12.302;2022-10-30T04:35:41;13.37;;;4.83;;
17727;SDS011;8984;49.268;12.302;2022-10-30T04:38:10;8.50;;;4.90;;
17727;SDS011;8984;49.268;12.302;2022-10-30T04:40:39;11.53;;;4.37;;
17727;SDS011;8984;49.268;12.302;2022-10-30T04:43:08;13.43;;;4.53;;
17727;SDS011;8984;49.268;12.302;2022-10-30T04:45:35;8.20;;;4.50;;
17727;SDS011;8984;49.268;12.302;2022-10-30T04:48:03;7.73;;;4.23;;
17727;SDS011;8984;49.268;12.302;2022-10-30T04:50:32;7.30;;;4.03;;
17727;SDS011;8984;49.268;12.302;2022-10-30T04:53:00;8.40;;;4.73;;
17727;SDS011;8984;49.268;12.302;2022-10-30T04:55:29;13.60;;;5.00;;
17727;SDS011;8984;49.268;12.302;2022-10-30T04:57:56;11.57;;;5.03;;
17727;SDS011;8984;49.268;12.302;2022-10-30T05:00:24;12.80;;;4.70;;
17727;SDS011;8984;49.268;12.302;2022-10-30T05:02:52;11.73;;;4.57;;
17727;SDS011;8984;49.268;12.302;2022-10-30T05:05:19;18.50;;;4.63;;
17727;SDS011;8984;49.268;12.302;2022-10-30T05:07:46;7.23;;;4.10;;
17727;SDS011;8984;49.268;12.302;2022-10-30T05:10:13;9.90;;;4.37;;
17727;SDS011;8984;49.268;12.302;2022-10-30T05:12:44;10.87;;;4.57;;
17727;SDS011;8984;49.268;12.302;2022-10-30T05:15:11;8.30;;;4.30;;
17727;SDS011;8984;49.268;12.302;2022-10-30T05:17:39;8.97;;;4.43;;
17727;SDS011;8984;49.268;12.302;2022-10-30T05:20:07;11.53;;;4.73;;
17727;SDS011;8984;49.268;12.302;2022-10-30T05:22:34;7.23;;;4.07;;
17727;SDS011;8984;49.268;12.302;2022-10-30T05:25:01;12.63;;;4.70;;
17727;SDS011;8984;49.268;12.302;2022-10-30T05:27:28;9.43;;;4.63;;
17727;SDS011;8984;49.268;12.302;2022-10-30T05:29:56;11.37;;;5.00;;
17727;SDS011;8984;49.268;12.302;2022-10-30T05:32:23;7.43;;;4.57;;
17727;SDS011;8984;49.268;12.302;2022-10-30T05:34:50;12.13;;;5.30;;
17727;SDS011;8984;49.268;12.302;2022-10-30T05:37:17;10.90;;;4.47;;
17727;SDS011;8984;49.268;12.302;2022-10-30T05:39:44;11.73;;;5.70;;
17727;SDS011;8984;49.268;12.302;2022-10-30T05:42:10;14.07;;;5.83;;
17727;SDS011;8984;49.268;12.302;2022-10-30T05:44:37;13.43;;;6.03;;
17727;SDS011;8984;49.268;12.302;2022-10-30T05:47:06;12.83;;;6.07;;
17727;SDS011;8984;49.268;12.302;2022-10-30T05:49:32;9.70;;;4.97;;
17727;SDS011;8984;49.268;12.302;2022-10-30T05:51:59;10.30;;;5.23;;
17727;SDS011;8984;49.268;12.302;2022-10-30T05:54:26;10.83;;;4.87;;
17727;SDS011;8984;49.268;12.302;2022-10-30T05:56:53;12.47;;;4.70;;
17727;SDS011;8984;49.268;12.302;2022-10-30T05:59:20;7.87;;;4.67;;
17727;SDS011;8984;49.268;12.302;2022-10-30T06:01:46;10.47;;;4.67;;
17727;SDS011;8984;49.268;12.302;2022-10-30T06:04:15;8.87;;;4.27;;
17727;SDS011;8984;49.268;12.302;2022-10-30T06:06:42;12.37;;;5.07;;
17727;SDS011;8984;49.268;12.302;2022-10-30T06:09:09;10.63;;;5.30;;
17727;SDS011;8984;49.268;12.302;2022-10-30T06:11:36;10.77;;;5.57;;
17727;SDS011;8984;49.268;12.302;2022-10-30T06:14:02;11.33;;;5.17;;
17727;SDS011;8984;49.268;12.302;2022-10-30T06:16:29;12.77;;;5.57;;
17727;SDS011;8984;49.268;12.302;2022-10-30T06:18:56;15.33;;;4.87;;
17727;SDS011;8984;49.268;12.302;2022-10-30T06:21:24;7.73;;;4.53;;
17727;SDS011;8984;49.268;12.302;2022-10-30T06:23:51;11.63;;;4.50;;
17727;SDS011;8984;49.268;12.302;2022-10-30T06:26:18;9.70;;;4.70;;
17727;SDS011;8984;49.268;12.302;2022-10-30T06:28:45;13.40;;;4.97;;
17727;SDS011;8984;49.268;12.302;2022-10-30T06:31:11;9.83;;;4.73;;
17727;SDS011;8984;49.268;12.302;2022-10-30T06:33:38;10.67;;;5.13;;
17727;SDS011;8984;49.268;12.302;2022-10-30T06:36:05;11.83;;;5.47;;
17727;SDS011;8984;49.268;12.302;2022-10-30T06:38:34;9.03;;;5.87;;
17727;SDS011;8984;49.268;12.302;2022-10-30T06:41:01;12.43;;;5.23;;
17727;SDS011;8984;49.268;12.302;2022-10-30T06:43:28;10.27;;;4.90;;
17727;SDS011;8984;49.268;12.302;2022-10-30T06:45:56;10.20;;;5.60;;
17727;SDS011;8984;49.268;12.302;2022-10-30T06:48:24;12.47;;;5.67;;
17727;SDS011;8984;49.268;12.302;2022-10-30T06:50:52;12.93;;;5.90;;
17727;SDS011;8984;49.268;12.302;2022-10-30T06:53:20;11.00;;;5.43;;
17727;SDS011;8984;49.268;12.302;2022-10-30T06:55:53;14.30;;;5.50;;
17727;SDS011;8984;49.268;12.302;2022-10-30T06:58:21;9.87;;;5.30;;
17727;SDS011;8984;49.268;12.302;2022-10-30T07:00:48;10.40;;;5.40;;
17727;SDS011;8984;49.268;12.302;2022-10-30T07:03:15;16.33;;;5.37;;
17727;SDS011;8984;49.268;12.302;2022-10-30T07:05:42;14.17;;;5.87;;
17727;SDS011;8984;49.268;12.302;2022-10-30T07:08:10;13.20;;;6.43;;
17727;SDS011;8984;49.268;12.302;2022-10-30T07:10:37;10.90;;;5.43;;
17727;SDS011;8984;49.268;12.302;2022-10-30T07:13:06;12.50;;;5.60;;
17727;SDS011;8984;49.268;12.302;2022-10-30T07:15:33;13.27;;;5.63;;
17727;SDS011;8984;49.268;12.302;2022-10-30T07:18:01;14.00;;;6.73;;
17727;SDS011;8984;49.268;12.302;2022-10-30T07:20:30;16.87;;;8.00;;
17727;SDS011;8984;49.268;12.302;2022-10-30T07:22:58;15.00;;;7.40;;
17727;SDS011;8984;49.268;12.302;2022-10-30T07:25:25;10.77;;;7.20;;
17727;SDS011;8984;49.268;12.302;2022-10-30T07:27:52;20.63;;;9.47;;
17727;SDS011;8984;49.268;12.302;2022-10-30T07:30:22;15.20;;;9.13;;
17727;SDS011;8984;49.268;12.302;2022-10-30T07:32:56;16.00;;;7.30;;
17727;SDS011;8984;49.268;12.302;2022-10-30T07:35:24;13.93;;;6.20;;
17727;SDS011;8984;49.268;12.302;2022-10-30T07:37:52;16.17;;;8.70;;
17727;SDS011;8984;49.268;12.302;2022-10-30T07:40:20;12.77;;;7.30;;
17727;SDS011;8984;49.268;12.302;2022-10-30T07:42:47;13.97;;;6.87;;
17727;SDS011;8984;49.268;12.302;2022-10-30T07:45:14;11.30;;;6.93;;
17727;SDS011;8984;49.268;12.302;2022-10-30T07:47:42;16.23;;;7.07;;
17727;SDS011;8984;49.268;12.302;2022-10-30T07:50:09;18.40;;;8.60;;
17727;SDS011;8984;49.268;12.302;2022-10-30T07:52:36;12.30;;;7.93;;
17727;SDS011;8984;49.268;12.302;2022-10-30T07:55:05;15.00;;;7.33;;
17727;SDS011;8984;49.268;12.302;2022-10-30T07:57:34;10.80;;;7.03;;
17727;SDS011;8984;49.268;12.302;2022-10-30T08:00:02;14.53;;;7.60;;
17727;SDS011;8984;49.268;12.302;2022-10-30T08:02:30;12.97;;;6.50;;
17727;SDS011;8984;49.268;12.302;2022-10-30T08:04:58;13.47;;;6.63;;
17727;SDS011;8984;49.268;12.302;2022-10-30T08:07:30;16.10;;;6.73;;
17727;SDS011;8984;49.268;12.302;2022-10-30T08:09:58;9.33;;;6.40;;
17727;SDS011;8984;49.268;12.302;2022-10-30T08:12:25;17.20;;;6.63;;
17727;SDS011;8984;49.268;12.302;2022-10-30T08:14:52;11.97;;;6.30;;
17727;SDS011;8984;49.268;12.302;2022-10-30T08:17:20;15.10;;;6.17;;
17727;SDS011;8984;49.268;12.302;2022-10-30T08:19:47;13.67;;;6.63;;
17727;SDS011;8984;49.268;12.302;2022-10-30T08:22:15;14.10;;;6.30;;
17727;SDS011;8984;49.268;12.302;2022-10-30T08:24:43;10.97;;;6.60;;
17727;SDS011;8984;49.268;12.302;2022-10-30T08:27:10;13.63;;;6.53;;
17727;SDS011;8984;49.268;12.302;2022-10-30T08:29:37;13.03;;;6.53;;
17727;SDS011;8984;49.268;12.302;2022-10-30T08:32:04;10.53;;;5.90;;
17727;SDS011;8984;49.268;12.302;2022-10-30T08:34:31;12.17;;;5.90;;
17727;SDS011;8984;49.268;12.302;2022-10-30T08:36:59;11.17;;;5.37;;
17727;SDS011;8984;49.268;12.302;2022-10-30T08:39:27;15.00;;;6.10;;
17727;SDS011;8984;49.268;12.302;2022-10-30T08:41:55;14.70;;;6.67;;
17727;SDS011;8984;49.268;12.302;2022-10-30T08:44:24;13.03;;;5.33;;
17727;SDS011;8984;49.268;12.302;2022-10-30T08:46:51;15.60;;;5.90;;
17727;SDS011;8984;49.268;12.302;2022-10-30T08:49:18;11.70;;;5.43;;
17727;SDS011;8984;49.268;12.302;2022-10-30T08:51:45;9.10;;;5.63;;
17727;SDS011;8984;49.268;12.302;2022-10-30T08:54:12;13.00;;;6.20;;
17727;SDS011;8984;49.268;12.302;2022-10-30T08:56:40;11.83;;;6.57;;
17727;SDS011;8984;49.268;12.302;2022-10-30T08:59:08;12.03;;;5.67;;
17727;SDS011;8984;49.268;12.302;2022-10-30T09:01:36;13.10;;;5.57;;
17727;SDS011;8984;49.268;12.302;2022-10-30T09:04:06;9.20;;;5.47;;
17727;SDS011;8984;49.268;12.302;2022-10-30T09:06:49;7.67;;;5.10;;
17727;SDS011;8984;49.268;12.302;2022-10-30T09:09:23;16.43;;;5.90;;
17727;SDS011;8984;49.268;12.302;2022-10-30T09:11:58;12.97;;;5.47;;
17727;SDS011;8984;49.268;12.302;2022-10-30T09:14:37;11.60;;;5.27;;
17727;SDS011;8984;49.268;12.302;2022-10-30T09:17:17;11.20;;;5.10;;
17727;SDS011;8984;49.268;12.302;2022-10-30T09:19:51;12.00;;;5.20;;
17727;SDS011;8984;49.268;12.302;2022-10-30T09:22:22;9.00;;;5.13;;
17727;SDS011;8984;49.268;12.302;2022-10-30T09:24:55;14.97;;;5.43;;
17727;SDS011;8984;49.268;12.302;2022-10-30T09:27:40;9.40;;;4.77;;
17727;SDS011;8984;49.268;12.302;2022-10-30T09:30:09;11.93;;;5.03;;
17727;SDS011;8984;49.268;12.302;2022-10-30T09:33:07;10.57;;;5.80;;
17727;SDS011;8984;49.268;12.302;2022-10-30T09:35:52;13.60;;;5.37;;
17727;SDS011;8984;49.268;12.302;2022-10-30T09:38:21;13.03;;;5.27;;
17727;SDS011;8984;49.268;12.302;2022-10-30T09:41:02;11.20;;;5.07;;
17727;SDS011;8984;49.268;12.302;2022-10-30T09:44:03;8.10;;;4.70;;
17727;SDS011;8984;49.268;12.302;2022-10-30T09:46:51;13.03;;;5.60;;
17727;SDS011;8984;49.268;12.302;2022-10-30T09:49:33;12.27;;;5.40;;
17727;SDS011;8984;49.268;12.302;2022-10-30T09:52:24;8.17;;;5.27;;
17727;SDS011;8984;49.268;12.302;2022-10-30T09:55:17;19.20;;;6.00;;
17727;SDS011;8984;49.268;12.302;2022-10-30T09:58:01;16.20;;;5.23;;
17727;SDS011;8984;49.268;12.302;2022-10-30T10:00:42;14.40;;;6.13;;
17727;SDS011;8984;49.268;12.302;2022-10-30T10:03:19;12.57;;;5.50;;
17727;SDS011;8984;49.268;12.302;2022-10-30T10:06:19;8.67;;;4.40;;
17727;SDS011;8984;49.268;12.302;2022-10-30T10:09:08;14.20;;;4.83;;
17727;SDS011;8984;49.268;12.302;2022-10-30T10:11:48;11.03;;;4.60;;
17727;SDS011;8984;49.268;12.302;2022-10-30T10:14:55;9.20;;;4.10;;
17727;SDS011;8984;49.268;12.302;2022-10-30T10:17:24;8.35;;;4.25;;
17727;SDS011;8984;49.268;12.302;2022-10-30T10:19:57;13.18;;;3.72;;
17727;SDS011;8984;49.268;12.302;2022-10-30T10:22:25;12.13;;;4.30;;
17727;SDS011;8984;49.268;12.302;2022-10-30T10:24:59;15.32;;;4.45;;
17727;SDS011;8984;49.268;12.302;2022-10-30T10:27:36;9.98;;;3.78;;
17727;SDS011;8984;49.268;12.302;2022-10-30T10:30:14;9.60;;;4.03;;
17727;SDS011;8984;49.268;12.302;2022-10-30T10:35:51;8.75;;;3.75;;
17727;SDS011;8984;49.268;12.302;2022-10-30T10:38:27;7.85;;;3.58;;
17727;SDS011;8984;49.268;12.302;2022-10-30T10:41:07;9.88;;;3.90;;
17727;SDS011;8984;49.268;12.302;2022-10-30T10:43:45;7.95;;;3.75;;
17727;SDS011;8984;49.268;12.302;2022-10-30T10:46:39;9.32;;;3.67;;
17727;SDS011;8984;49.268;12.302;2022-10-30T10:49:18;9.98;;;3.70;;
17727;SDS011;8984;49.268;12.302;2022-10-30T10:51:53;11.02;;;4.03;;
17727;SDS011;8984;49.268;12.302;2022-10-30T10:54:24;10.32;;;3.88;;
17727;SDS011;8984;49.268;12.302;2022-10-30T10:56:55;9.93;;;3.60;;
17727;SDS011;8984;49.268;12.302;2022-10-30T10:59:25;10.73;;;3.50;;
17727;SDS011;8984;49.268;12.302;2022-10-30T11:02:01;10.55;;;3.55;;
17727;SDS011;8984;49.268;12.302;2022-10-30T11:04:50;12.45;;;3.65;;
17727;SDS011;8984;49.268;12.302;2022-10-30T11:07:20;10.00;;;4.00;;
17727;SDS011;8984;49.268;12.302;2022-10-30T11:09:48;8.27;;;3.40;;
17727;SDS011;8984;49.268;12.302;2022-10-30T11:12:18;9.55;;;3.65;;
17727;SDS011;8984;49.268;12.302;2022-10-30T11:14:47;10.85;;;3.28;;
17727;SDS011;8984;49.268;12.302;2022-10-30T11:17:17;9.85;;;3.80;;
17727;SDS011;8984;49.268;12.302;2022-10-30T11:19:47;7.97;;;3.70;;
17727;SDS011;8984;49.268;12.302;2022-10-30T11:22:17;11.45;;;3.33;;
17727;SDS011;8984;49.268;12.302;2022-10-30T11:24:49;8.48;;;3.55;;
17727;SDS011;8984;49.268;12.302;2022-10-30T11:27:16;12.45;;;3.95;;
17727;SDS011;8984;49.268;12.302;2022-10-30T11:29:50;13.05;;;4.32;;
17727;SDS011;8984;49.268;12.302;2022-10-30T11:32:21;9.40;;;3.63;;
17727;SDS011;8984;49.268;12.302;2022-10-30T11:35:02;10.50;;;4.20;;
17727;SDS011;8984;49.268;12.302;2022-10-30T11:37:38;14.60;;;4.43;;
17727;SDS011;8984;49.268;12.302;2022-10-30T11:40:13;12.07;;;4.00;;
17727;SDS011;8984;49.268;12.302;2022-10-30T11:42:43;10.95;;;3.80;;
17727;SDS011;8984;49.268;12.302;2022-10-30T11:45:13;11.80;;;4.00;;
17727;SDS011;8984;49.268;12.302;2022-10-30T11:47:43;10.18;;;3.42;;
17727;SDS011;8984;49.268;12.302;2022-10-30T11:50:16;10.15;;;3.70;;
17727;SDS011;8984;49.268;12.302;2022-10-30T11:52:44;12.52;;;4.30;;
17727;SDS011;8984;49.268;12.302;2022-10-30T11:55:14;13.50;;;3.42;;
17727;SDS011;8984;49.268;12.302;2022-10-30T11:57:44;12.32;;;3.67;;
17727;SDS011;8984;49.268;12.302;2022-10-30T12:00:14;11.25;;;3.75;;
17727;SDS011;8984;49.268;12.302;2022-10-30T12:02:46;11.68;;;4.00;;
17727;SDS011;8984;49.268;12.302;2022-10-30T12:05:35;8.60;;;4.00;;
17727;SDS011;8984;49.268;12.302;2022-10-30T12:08:16;13.05;;;4.03;;
17727;SDS011;8984;49.268;12.302;2022-10-30T12:10:45;12.23;;;3.78;;
17727;SDS011;8984;49.268;12.302;2022-10-30T12:13:20;16.23;;;3.50;;
17727;SDS011;8984;49.268;12.302;2022-10-30T12:15:48;8.90;;;3.13;;
17727;SDS011;8984;49.268;12.302;2022-10-30T12:18:29;11.02;;;3.55;;
17727;SDS011;8984;49.268;12.302;2022-10-30T12:20:57;8.50;;;3.25;;
17727;SDS011;8984;49.268;12.302;2022-10-30T12:23:26;8.35;;;3.45;;
17727;SDS011;8984;49.268;12.302;2022-10-30T12:25:55;9.10;;;3.55;;
17727;SDS011;8984;49.268;12.302;2022-10-30T12:28:24;13.70;;;3.28;;
17727;SDS011;8984;49.268;12.302;2022-10-30T12:30:54;10.68;;;3.38;;
17727;SDS011;8984;49.268;12.302;2022-10-30T12:33:24;8.70;;;3.58;;
17727;SDS011;8984;49.268;12.302;2022-10-30T12:35:56;9.02;;;3.38;;
17727;SDS011;8984;49.268;12.302;2022-10-30T12:38:24;10.75;;;3.20;;
17727;SDS011;8984;49.268;12.302;2022-10-30T12:40:57;12.95;;;3.70;;
17727;SDS011;8984;49.268;12.302;2022-10-30T12:43:30;9.05;;;3.38;;
17727;SDS011;8984;49.268;12.302;2022-10-30T12:46:05;11.02;;;3.55;;
17727;SDS011;8984;49.268;12.302;2022-10-30T12:48:40;9.80;;;3.28;;
17727;SDS011;8984;49.268;12.302;2022-10-30T12:51:19;9.00;;;3.10;;
17727;SDS011;8984;49.268;12.302;2022-10-30T12:53:50;8.63;;;3.22;;
17727;SDS011;8984;49.268;12.302;2022-10-30T12:56:24;8.70;;;3.38;;
17727;SDS011;8984;49.268;12.302;2022-10-30T12:58:55;15.68;;;3.67;;
17727;SDS011;8984;49.268;12.302;2022-10-30T13:01:44;11.75;;;3.05;;
17727;SDS011;8984;49.268;12.302;2022-10-30T13:04:16;9.27;;;2.90;;
17727;SDS011;8984;49.268;12.302;2022-10-30T13:06:50;8.32;;;2.97;;
17727;SDS011;8984;49.268;12.302;2022-10-30T13:09:25;13.50;;;3.28;;
17727;SDS011;8984;49.268;12.302;2022-10-30T13:11:56;11.50;;;3.22;;
17727;SDS011;8984;49.268;12.302;2022-10-30T13:14:29;9.43;;;3.40;;
17727;SDS011;8984;49.268;12.302;2022-10-30T13:17:00;14.65;;;3.55;;
17727;SDS011;8984;49.268;12.302;2022-10-30T13:19:27;9.80;;;3.60;;
17727;SDS011;8984;49.268;12.302;2022-10-30T13:21:57;9.43;;;3.03;;
17727;SDS011;8984;49.268;12.302;2022-10-30T13:24:34;7.90;;;3.08;;
17727;SDS011;8984;49.268;12.302;2022-10-30T13:27:11;8.93;;;3.10;;
17727;SDS011;8984;49.268;12.302;2022-10-30T13:29:43;14.15;;;3.60;;
17727;SDS011;8984;49.268;12.302;2022-10-30T13:32:25;12.95;;;3.42;;
17727;SDS011;8984;49.268;12.302;2022-10-30T13:35:01;9.57;;;3.08;;
17727;SDS011;8984;49.268;12.302;2022-10-30T13:37:41;7.85;;;3.22;;
17727;SDS011;8984;49.268;12.302;2022-10-30T13:40:14;12.63;;;3.88;;
17727;SDS011;8984;49.268;12.302;2022-10-30T13:42:49;11.40;;;3.38;;
17727;SDS011;8984;49.268;12.302;2022-10-30T13:45:28;7.88;;;3.00;;
17727;SDS011;8984;49.268;12.302;2022-10-30T13:48:17;7.82;;;3.30;;
17727;SDS011;8984;49.268;12.302;2022-10-30T13:51:01;12.10;;;3.33;;
17727;SDS011;8984;49.268;12.302;2022-10-30T13:53:42;7.70;;;3.00;;
17727;SDS011;8984;49.268;12.302;2022-10-30T13:56:13;10.10;;;3.25;;
17727;SDS011;8984;49.268;12.302;2022-10-30T13:58:43;12.55;;;3.65;;
17727;SDS011;8984;49.268;12.302;2022-10-30T14:01:16;9.88;;;3.42;;
17727;SDS011;8984;49.268;12.302;2022-10-30T14:03:50;10.25;;;3.47;;
17727;SDS011;8984;49.268;12.302;2022-10-30T14:06:27;9.10;;;3.13;;
17727;SDS011;8984;49.268;12.302;2022-10-30T14:09:04;8.75;;;3.00;;
17727;SDS011;8984;49.268;12.302;2022-10-30T14:11:40;9.30;;;3.25;;
17727;SDS011;8984;49.268;12.302;2022-10-30T14:14:23;14.25;;;3.38;;
17727;SDS011;8984;49.268;12.302;2022-10-30T14:17:08;11.63;;;3.13;;
17727;SDS011;8984;49.268;12.302;2022-10-30T14:22:37;10.30;;;3.42;;
17727;SDS011;8984;49.268;12.302;2022-10-30T14:25:12;12.60;;;3.58;;
17727;SDS011;8984;49.268;12.302;2022-10-30T14:27:40;9.05;;;3.35;;
17727;SDS011;8984;49.268;12.302;2022-10-30T14:30:15;10.30;;;3.50;;
17727;SDS011;8984;49.268;12.302;2022-10-30T14:32:47;10.88;;;3.25;;
17727;SDS011;8984;49.268;12.302;2022-10-30T14:35:32;11.10;;;3.13;;
17727;SDS011;8984;49.268;12.302;2022-10-30T14:38:23;10.60;;;2.78;;
17727;SDS011;8984;49.268;12.302;2022-10-30T14:41:05;10.65;;;3.33;;
17727;SDS011;8984;49.268;12.302;2022-10-30T14:43:45;12.55;;;3.38;;
17727;SDS011;8984;49.268;12.302;2022-10-30T14:46:18;12.88;;;3.10;;
17727;SDS011;8984;49.268;12.302;2022-10-30T14:48:56;10.75;;;3.42;;
17727;SDS011;8984;49.268;12.302;2022-10-30T14:51:28;12.55;;;3.20;;
17727;SDS011;8984;49.268;12.302;2022-10-30T14:54:17;7.45;;;3.00;;
17727;SDS011;8984;49.268;12.302;2022-10-30T14:56:49;9.52;;;3.28;;
17727;SDS011;8984;49.268;12.302;2022-10-30T14:59:21;10.35;;;3.72;;
17727;SDS011;8984;49.268;12.302;2022-10-30T15:01:58;8.32;;;3.20;;
17727;SDS011;8984;49.268;12.302;2022-10-30T15:04:41;11.25;;;3.50;;
17727;SDS011;8984;49.268;12.302;2022-10-30T15:07:21;7.75;;;3.38;;
17727;SDS011;8984;49.268;12.302;2022-10-30T15:09:56;12.00;;;3.45;;